Main page
METAR-TAF:

METAR-TAF

Airports :

Jerez de la Frontera, Spain

Jerez Airport

latitude: 36-45N, longitude: 006-04W, elevation: 27 m

Current weather observation

The report was made 19 minutes ago, at 07:00 UTC
Calm wind
Temperature 4°C
Humidity 87%
Pressure 1016 hPa
Visibility 10 km or more
no clouds below 1500 m and no cumulonimbus

METAR: LEJR 220700Z 00000KT CAVOK 04/02 Q1016

Time: 08:19 (07:19 UTC)

Forecast

The report was made 2 hours and 19 minutes ago, at 05:00 UTC
Forecast valid from 22 at 06 UTC to 23 at 06 UTC
Wind 3 kt from variable directions
Visibility 10 km or more
no clouds below 1500 m and no cumulonimbus
Probability 40% :
Temporary
from 22 at 14 UTC to 22 at 18 UTC
Wind 10 kt from the South/Southwest

TAF: LEJR 220500Z 2206/2306 VRB03KT CAVOK TX24/2215Z TN03/2206Z PROB40 TEMPO 2214/2218 20010KT

Weather observations and forecasts of more than 4000 airports (METAR and TAF reports).

The available stations are represented by yellow and red dots on the map.

Hover mouse over dot to see the name of the station.

Then click to see weather observations and forecasts.

To change the map : click on the green buttons with a black cross to zoom in, on the green button with a dash to zoom out, or on the green arrows for adjacent maps.


METAR-TAF: